Bogashevo Airport
UNTT : now visible

Airfield :











YOU CAN JOIN US ON...

 
LOGIN :

Register | Disclaimer

   EN    FR    IT 

 









Legend :    VFR   Marginal VFR   IFR   Intensive IFR   Very Intensive IFR
Visi :
Ceiling :
>= 8 km
>= 3000ft
5 to 8 km
1000 to 3000 ft
1500m to 5 km
500 to 1000 ft
800 to 1500m
200 to 500 ft
< 800m
< 200 ft
Symbols :   Thunderstorms  Fog  Heavy snow  Heavy precipitations  Wind > 20 kt






- Airport Elevation : 597 ft
- IATA code : TOF


UNTT - Bogashevo

CURRENT METAR :
  • 250000Z 00000MPS CAVOK 19/17 Q1002 R21/090060 NOSIG RMK QFE736

EXPIRED METARs :
  • 242330Z 00000MPS CAVOK 18/17 Q1002 R21/090060 NOSIG RMK QFE736
  • 242300Z 00000MPS CAVOK 17/16 Q1002 R21/090060 NOSIG RMK QFE736
  • 242230Z 00000MPS CAVOK 17/17 Q1002 R21/090060 NOSIG RMK QFE736
  • 242200Z 15001MPS CAVOK 17/16 Q1002 R21/090060 NOSIG RMK QFE736
  • 242130Z 08002MPS CAVOK 16/16 Q1002 R21/090060 NOSIG RMK QFE736
  • 242100Z 00000MPS CAVOK 17/17 Q1002 R21/////// NOSIG RMK QFE736
  • 242030Z 00000MPS CAVOK 18/17 Q1002 R21/////// NOSIG RMK QFE736
  • 242000Z VRB01MPS CAVOK 18/17 Q1002 R21/////// NOSIG RMK QFE736

TAF TAF UNTT
Valid from the 25 at 00:00 until the 25 at 09:00 UTC


242300Z 2500/2509 15003G08MPS 9999 SCT040CB
BECMG 2504/2506 23005G14MPS
TEMPO 2506/2509 -TSRA



MET'MAP, your aeronautical weather chart ! - Copyright ORBIFLY December 2007 - Disclaimer

ORBIFLY MET'MAP TEAM :

Programming & Development : Alexandra Zaïnal
Original concept : Baudouin d'Aumeries
Technical & hardware support : Manuel Goepfert
Assistance : Marc-Olivier Méhu




SOURCES & CREDITS :

   NOAA       Earth
Advisory